METAR Data
IDs: Format: Raw Decoded Include TAF

Data at: 1352 UTC 26 Feb 2021

ETAR 261333Z 03003KT 9999 -RA OVC014 06/06 A3048 RMK AO2A RAB33 SLP336 FZRANO $